createdAt,value
2023-04-23T00:01:57.534Z,98352.66
2023-04-23T00:04:29.115Z,98354.59
2023-04-23T00:06:57.927Z,98360.84
2023-04-23T00:09:26.960Z,98355.28
2023-04-23T00:11:55.577Z,98357.00
2023-04-23T00:14:24.278Z,98361.88
2023-04-23T00:16:53.306Z,98356.25
2023-04-23T00:19:21.427Z,98352.38
2023-04-23T00:21:51.605Z,98353.06
2023-04-23T00:24:19.690Z,98350.22
2023-04-23T00:26:47.724Z,98347.41
2023-04-23T00:29:15.930Z,98353.53
2023-04-23T00:31:44.134Z,98347.34
2023-04-23T00:34:12.343Z,98347.50
2023-04-23T00:36:42.331Z,98345.13
2023-04-23T00:39:12.069Z,98357.28
2023-04-23T00:41:41.877Z,98351.31
2023-04-23T00:44:10.377Z,98348.44
2023-04-23T00:46:39.326Z,98351.47
2023-04-23T00:49:07.719Z,98355.53
2023-04-23T00:51:36.335Z,98356.69
2023-04-23T00:54:04.973Z,98349.84
2023-04-23T00:56:35.154Z,98356.69
2023-04-23T00:59:04.087Z,98346.91
2023-04-23T01:01:33.440Z,98351.38
2023-04-23T01:04:03.438Z,98353.00
2023-04-23T01:06:32.016Z,98352.22
2023-04-23T01:09:00.124Z,98349.41
2023-04-23T01:11:28.714Z,98354.38
2023-04-23T01:13:59.754Z,98350.75
2023-04-23T01:16:28.410Z,98353.72
2023-04-23T01:18:56.948Z,98352.84
2023-04-23T01:21:28.784Z,98350.41
2023-04-23T01:23:58.709Z,98358.91
2023-04-23T01:26:27.498Z,98357.41
2023-04-23T01:28:55.930Z,98368.41
2023-04-23T01:31:24.648Z,98360.53
2023-04-23T01:33:55.308Z,98357.59
2023-04-23T01:36:24.654Z,98363.84
2023-04-23T01:38:53.700Z,98375.31
2023-04-23T01:41:23.902Z,98381.59
2023-04-23T01:43:52.102Z,98380.56
2023-04-23T01:46:24.248Z,98384.34
2023-04-23T01:48:52.699Z,98382.94
2023-04-23T01:51:20.775Z,98383.53
2023-04-23T01:53:48.977Z,98390.72
2023-04-23T01:56:18.234Z,98395.91
2023-04-23T01:58:47.965Z,98402.41
2023-04-23T02:01:16.283Z,98395.22
2023-04-23T02:03:45.016Z,98401.16
2023-04-23T02:06:14.705Z,98399.34
2023-04-23T02:08:42.879Z,98392.63
2023-04-23T02:11:11.184Z,98392.75
2023-04-23T02:13:41.005Z,98392.75
2023-04-23T02:16:11.404Z,98398.22
2023-04-23T02:18:39.674Z,98393.59
2023-04-23T02:21:08.196Z,98399.53
2023-04-23T02:23:36.295Z,98407.22
2023-04-23T02:26:04.747Z,98395.06
2023-04-23T02:28:33.100Z,98402.31
2023-04-23T02:31:01.784Z,98403.06
2023-04-23T02:33:31.932Z,98400.63
2023-04-23T02:36:00.000Z,98408.13
2023-04-23T02:38:28.417Z,98398.84
2023-04-23T02:40:56.733Z,98405.88
2023-04-23T02:43:25.132Z,98398.09
2023-04-23T02:45:53.186Z,98396.94
2023-04-23T02:48:22.425Z,98395.16
2023-04-23T02:50:51.881Z,98398.88
2023-04-23T02:53:20.230Z,98404.06
2023-04-23T02:55:48.313Z,98409.53
2023-04-23T02:58:16.616Z,98407.38
2023-04-23T03:00:44.989Z,98403.75
2023-04-23T03:03:13.619Z,98396.88
2023-04-23T03:05:43.032Z,98401.81
2023-04-23T03:08:12.816Z,98408.78
2023-04-23T03:10:40.971Z,98405.44
2023-04-23T03:13:09.277Z,98401.41
2023-04-23T03:15:37.324Z,98388.28
2023-04-23T03:18:08.407Z,98392.13
2023-04-23T03:20:36.975Z,98395.25
2023-04-23T03:23:06.557Z,98396.50
2023-04-23T03:25:36.571Z,98407.09
2023-04-23T03:28:05.144Z,98402.81
2023-04-23T03:30:34.601Z,98405.06
2023-04-23T03:33:03.000Z,98407.41
2023-04-23T03:35:31.218Z,98407.88
2023-04-23T03:38:03.028Z,98418.69
2023-04-23T03:40:34.150Z,98411.13
2023-04-23T03:43:04.145Z,98401.91
2023-04-23T03:45:32.324Z,98390.16
2023-04-23T03:48:00.792Z,98395.84
2023-04-23T03:50:29.722Z,98395.22
2023-04-23T03:52:57.747Z,98398.00
2023-04-23T03:55:25.983Z,98400.91
2023-04-23T03:57:54.195Z,98395.66
2023-04-23T04:00:24.043Z,98403.69
2023-04-23T04:02:52.563Z,98396.31
2023-04-23T04:05:20.901Z,98395.19
2023-04-23T04:07:48.967Z,98395.97
2023-04-23T04:10:17.209Z,98392.34
2023-04-23T04:12:48.024Z,98400.94
2023-04-23T04:15:17.405Z,98401.88
2023-04-23T04:17:47.247Z,98400.50
2023-04-23T04:20:15.725Z,98405.50
2023-04-23T04:22:43.926Z,98403.69
2023-04-23T04:25:12.576Z,98406.22
2023-04-23T04:27:41.750Z,98408.41
2023-04-23T04:30:11.204Z,98411.00
2023-04-23T04:32:40.672Z,98418.28
2023-04-23T04:35:13.015Z,98413.22
2023-04-23T04:37:42.036Z,98411.47
2023-04-23T04:40:11.879Z,98415.34
2023-04-23T04:42:40.493Z,98416.06
2023-04-23T04:45:10.659Z,98422.69
2023-04-23T04:47:39.047Z,98433.38
2023-04-23T04:50:10.462Z,98429.72
2023-04-23T04:52:38.674Z,98430.41
2023-04-23T04:55:08.247Z,98442.59
2023-04-23T04:57:36.924Z,98441.13
2023-04-23T05:00:22.650Z,98438.28
2023-04-23T05:02:51.393Z,98450.09
2023-04-23T05:05:21.701Z,98447.41
2023-04-23T05:07:49.881Z,98442.69
2023-04-23T05:10:18.061Z,98448.34
2023-04-23T05:12:46.197Z,98449.06
2023-04-23T05:15:15.670Z,98454.81
2023-04-23T05:17:44.041Z,98455.63
2023-04-23T05:20:13.061Z,98450.59
2023-04-23T05:22:43.794Z,98451.56
2023-04-23T05:25:13.229Z,98448.31
2023-04-23T05:27:41.873Z,98451.47
2023-04-23T05:30:12.036Z,98457.97
2023-04-23T05:32:41.885Z,98462.59
2023-04-23T05:35:10.860Z,98461.63
2023-04-23T05:37:40.054Z,98448.06
2023-04-23T05:40:13.366Z,98445.75
2023-04-23T05:42:41.673Z,98446.09
2023-04-23T05:45:11.122Z,98445.94
2023-04-23T05:47:39.407Z,98446.63
2023-04-23T05:50:08.838Z,98445.78
2023-04-23T05:52:37.693Z,98440.19
2023-04-23T05:55:06.989Z,98436.13
2023-04-23T05:57:37.361Z,98441.25
2023-04-23T06:00:06.660Z,98436.91
2023-04-23T06:02:35.193Z,98443.91
2023-04-23T06:05:03.438Z,98446.63
2023-04-23T06:07:31.700Z,98446.19
2023-04-23T06:10:00.118Z,98440.88
2023-04-23T06:12:28.415Z,98439.72
2023-04-23T06:14:57.974Z,98443.53
2023-04-23T06:17:26.063Z,98439.75
2023-04-23T06:19:54.367Z,98439.81
2023-04-23T06:22:22.841Z,98444.31
2023-04-23T06:24:50.968Z,98439.72
2023-04-23T06:27:19.503Z,98441.59
2023-04-23T06:29:47.929Z,98443.41
2023-04-23T06:32:19.792Z,98446.19
2023-04-23T06:35:00.275Z,98439.63
2023-04-23T06:37:30.976Z,98437.56
2023-04-23T06:40:00.277Z,98434.44
2023-04-23T06:42:28.530Z,98425.09
2023-04-23T06:44:56.812Z,98425.09
2023-04-23T06:47:26.921Z,98421.44
2023-04-23T06:49:56.817Z,98423.63
2023-04-23T06:52:24.902Z,98415.47
2023-04-23T06:54:53.176Z,98416.19
2023-04-23T06:57:22.067Z,98413.31
2023-04-23T06:59:51.546Z,98421.66
2023-04-23T07:02:19.761Z,98424.16
2023-04-23T07:04:49.620Z,98406.59
2023-04-23T07:07:17.732Z,98418.06
2023-04-23T07:09:45.882Z,98410.34
2023-04-23T07:12:13.991Z,98410.19
2023-04-23T07:14:42.370Z,98411.28
2023-04-23T07:17:12.403Z,98412.25
2023-04-23T07:19:41.020Z,98412.75
2023-04-23T07:22:12.675Z,98409.78
2023-04-23T07:24:41.889Z,98406.16
2023-04-23T07:27:10.571Z,98402.53
2023-04-23T07:29:38.666Z,98407.34
2023-04-23T07:32:06.715Z,98413.97
2023-04-23T07:34:38.001Z,98408.06
2023-04-23T07:37:06.373Z,98404.72
2023-04-23T07:39:36.309Z,98387.34
2023-04-23T07:42:04.762Z,98376.53
2023-04-23T07:44:32.928Z,98362.78
2023-04-23T07:47:00.989Z,98358.28
2023-04-23T07:49:29.376Z,98367.94
2023-04-23T07:51:57.389Z,98362.38
2023-04-23T07:54:25.884Z,98360.81
2023-04-23T07:56:55.464Z,98351.44
2023-04-23T07:59:23.886Z,98339.22
2023-04-23T08:01:52.891Z,98348.19
2023-04-23T08:04:21.584Z,98342.41
2023-04-23T08:06:50.068Z,98329.81
2023-04-23T08:09:18.651Z,98323.91
2023-04-23T08:11:48.397Z,98322.41
2023-04-23T08:14:19.133Z,98321.56
2023-04-23T08:16:47.396Z,98310.47
2023-04-23T08:19:15.644Z,98318.75
2023-04-23T08:21:43.963Z,98315.31
2023-04-23T08:24:12.167Z,98311.66
2023-04-23T08:26:40.562Z,98313.41
2023-04-23T08:29:10.977Z,98309.72
2023-04-23T08:31:41.671Z,98302.63
2023-04-23T08:34:09.960Z,98298.22
2023-04-23T08:36:38.804Z,98294.53
2023-04-23T08:39:07.288Z,98292.28
2023-04-23T08:41:40.718Z,98286.69
2023-04-23T08:44:18.042Z,98293.25
2023-04-23T08:46:50.766Z,98301.06
2023-04-23T08:49:20.518Z,98292.94
2023-04-23T08:51:52.190Z,98308.00
2023-04-23T08:54:27.138Z,98289.00
2023-04-23T08:56:58.594Z,98297.75
2023-04-23T08:59:27.399Z,98283.44
2023-04-23T09:01:57.782Z,98292.75
2023-04-23T09:04:29.635Z,98281.81
2023-04-23T09:06:58.118Z,98290.41
2023-04-23T09:09:29.208Z,98283.09
2023-04-23T09:11:58.192Z,98281.00
2023-04-23T09:14:26.824Z,98273.16
2023-04-23T09:16:57.308Z,98264.53
2023-04-23T09:19:28.669Z,98265.47
2023-04-23T09:21:57.440Z,98269.75
2023-04-23T09:24:26.581Z,98261.72
2023-04-23T09:26:55.268Z,98266.34
2023-04-23T09:29:24.675Z,98279.53
2023-04-23T09:31:55.752Z,98264.41
2023-04-23T09:34:26.739Z,98265.84
2023-04-23T09:36:55.432Z,98269.09
2023-04-23T09:39:25.120Z,98281.28
2023-04-23T09:41:54.421Z,98285.56
2023-04-23T09:44:23.802Z,98283.66
2023-04-23T09:46:52.317Z,98275.13
2023-04-23T09:49:20.584Z,98271.25
2023-04-23T09:51:51.534Z,98270.47
2023-04-23T09:54:22.950Z,98277.88
2023-04-23T09:56:52.662Z,98260.69
2023-04-23T09:59:32.148Z,98268.28
2023-04-23T10:02:09.848Z,98264.44
2023-04-23T10:04:39.994Z,98252.25
2023-04-23T10:07:19.750Z,98254.56
2023-04-23T10:09:49.065Z,98246.34
2023-04-23T10:12:35.702Z,98235.50
2023-04-23T10:15:08.658Z,98233.69
2023-04-23T10:17:37.410Z,98229.84
2023-04-23T10:20:07.329Z,98228.13
2023-04-23T10:22:40.085Z,98234.44
2023-04-23T10:25:12.686Z,98233.34
2023-04-23T10:27:52.697Z,98231.63
2023-04-23T10:30:22.508Z,98227.69
2023-04-23T10:32:51.550Z,98233.13
2023-04-23T10:35:20.062Z,98233.22
2023-04-23T10:37:51.371Z,98218.31
2023-04-23T10:40:23.590Z,98219.03
2023-04-23T10:42:52.833Z,98226.06
2023-04-23T10:45:25.636Z,98215.69
2023-04-23T10:47:55.605Z,98213.63
2023-04-23T10:50:25.683Z,98210.97
2023-04-23T10:52:57.507Z,98210.31
2023-04-23T10:55:28.126Z,98197.53
2023-04-23T10:58:02.001Z,98196.38
2023-04-23T11:00:43.511Z,98192.47
2023-04-23T11:03:33.153Z,98213.97
2023-04-23T11:06:03.928Z,98202.72
2023-04-23T11:08:36.880Z,98192.53
2023-04-23T11:11:09.506Z,98194.53
2023-04-23T11:13:37.880Z,98185.66
2023-04-23T11:16:19.826Z,98189.41
2023-04-23T11:19:03.818Z,98181.66
2023-04-23T11:22:01.200Z,98188.66
2023-04-23T11:24:32.477Z,98192.56
2023-04-23T11:27:01.440Z,98186.78
2023-04-23T11:29:30.072Z,98178.47
2023-04-23T11:32:02.992Z,98182.44
2023-04-23T11:34:32.116Z,98186.88
2023-04-23T11:37:01.691Z,98184.97
2023-04-23T11:39:31.695Z,98186.41
2023-04-23T11:42:03.909Z,98179.66
2023-04-23T11:44:32.313Z,98173.06
2023-04-23T11:47:02.904Z,98167.25
2023-04-23T11:49:31.347Z,98163.41
2023-04-23T11:52:01.406Z,98165.09
2023-04-23T11:54:31.303Z,98156.91
2023-04-23T11:57:00.339Z,98149.56
2023-04-23T11:59:29.487Z,98158.59
2023-04-23T12:01:59.371Z,98147.88
2023-04-23T12:04:29.643Z,98150.41
2023-04-23T12:07:00.467Z,98144.69
2023-04-23T12:09:32.086Z,98152.38
2023-04-23T12:12:00.481Z,98142.69
2023-04-23T12:14:30.944Z,98134.63
2023-04-23T12:17:01.319Z,98140.03
2023-04-23T12:19:32.231Z,98132.94
2023-04-23T12:22:02.702Z,98132.47
2023-04-23T12:24:46.643Z,98133.63
2023-04-23T12:27:17.191Z,98127.97
2023-04-23T12:29:48.047Z,98136.13
2023-04-23T12:32:19.376Z,98139.63
2023-04-23T12:34:54.165Z,98152.53
2023-04-23T12:37:27.331Z,98134.66
2023-04-23T12:39:59.676Z,98136.47
2023-04-23T12:42:28.328Z,98120.25
2023-04-23T12:44:56.875Z,98121.78
2023-04-23T12:47:25.139Z,98121.28
2023-04-23T12:49:56.108Z,98122.94
2023-04-23T12:52:24.235Z,98127.13
2023-04-23T12:54:56.581Z,98118.06
2023-04-23T12:57:27.813Z,98118.09
2023-04-23T12:59:56.714Z,98101.53
2023-04-23T13:02:28.870Z,98107.22
2023-04-23T13:05:01.410Z,98096.31
2023-04-23T13:07:30.250Z,98083.78
2023-04-23T13:09:59.793Z,98086.78
2023-04-23T13:12:30.117Z,98079.78
2023-04-23T13:14:58.500Z,98077.06
2023-04-23T13:17:27.249Z,98079.19
2023-04-23T13:19:55.817Z,98065.09
2023-04-23T13:22:28.549Z,98065.66
2023-04-23T13:24:57.336Z,98058.66
2023-04-23T13:27:26.442Z,98047.94
2023-04-23T13:29:56.263Z,98036.69
2023-04-23T13:32:27.537Z,98039.91
2023-04-23T13:34:56.150Z,98032.56
2023-04-23T13:37:24.719Z,98026.09
2023-04-23T13:39:52.937Z,98026.84
2023-04-23T13:42:21.277Z,98023.03
2023-04-23T13:44:49.444Z,98016.91
2023-04-23T13:47:19.252Z,98012.91
2023-04-23T13:49:47.446Z,98010.50
2023-04-23T13:52:15.866Z,97999.41
2023-04-23T13:54:44.220Z,97990.06
2023-04-23T13:57:12.674Z,97998.28
2023-04-23T13:59:40.938Z,97995.91
2023-04-23T14:02:12.731Z,97995.53
2023-04-23T14:04:42.640Z,97986.06
2023-04-23T14:07:10.953Z,97990.66
2023-04-23T14:09:38.972Z,97986.59
2023-04-23T14:12:08.192Z,97983.06
2023-04-23T14:14:36.496Z,97980.19
2023-04-23T14:17:04.910Z,97977.06
2023-04-23T14:19:34.752Z,97982.53
2023-04-23T14:22:04.623Z,97974.63
2023-04-23T14:24:36.245Z,97978.09
2023-04-23T14:27:05.837Z,97976.53
2023-04-23T14:29:41.695Z,97974.59
2023-04-23T14:32:09.981Z,97963.53
2023-04-23T14:34:38.293Z,97963.47
2023-04-23T14:37:08.295Z,97965.75
2023-04-23T14:39:36.685Z,97951.88
2023-04-23T14:42:05.102Z,97945.88
2023-04-23T14:44:35.747Z,97946.97
2023-04-23T14:47:04.046Z,97936.75
2023-04-23T14:49:32.154Z,97942.00
2023-04-23T14:52:00.410Z,97930.47
2023-04-23T14:54:30.132Z,97924.63
2023-04-23T14:56:58.524Z,97910.81
2023-04-23T14:59:26.787Z,97908.19
2023-04-23T15:01:59.074Z,97901.78
2023-04-23T15:04:29.907Z,97903.53
2023-04-23T15:06:58.476Z,97903.25
2023-04-23T15:09:26.762Z,97899.63
2023-04-23T15:11:57.243Z,97906.78
2023-04-23T15:14:32.191Z,97895.72
2023-04-23T15:17:00.475Z,97895.41
2023-04-23T15:19:28.961Z,97893.19
2023-04-23T15:21:57.314Z,97888.06
2023-04-23T15:24:25.745Z,97876.81
2023-04-23T15:26:55.289Z,97871.97
2023-04-23T15:29:25.822Z,97870.03
2023-04-23T15:31:58.257Z,97862.84
2023-04-23T15:34:26.784Z,97858.06
2023-04-23T15:36:55.079Z,97868.97
2023-04-23T15:39:25.106Z,97860.81
2023-04-23T15:41:53.934Z,97864.06
2023-04-23T15:44:22.185Z,97860.19
2023-04-23T15:46:51.863Z,97855.00
2023-04-23T15:49:20.044Z,97854.19
2023-04-23T15:51:48.295Z,97843.13
2023-04-23T15:54:16.720Z,97849.41
2023-04-23T15:56:46.186Z,97845.63
2023-04-23T15:59:15.798Z,97831.63
2023-04-23T16:01:44.120Z,97842.47
2023-04-23T16:04:14.126Z,97840.25
2023-04-23T16:06:42.296Z,97834.59
2023-04-23T16:09:10.774Z,97830.63
2023-04-23T16:11:39.454Z,97824.41
2023-04-23T16:14:09.504Z,97826.91
2023-04-23T16:16:38.708Z,97822.19
2023-04-23T16:19:06.956Z,97811.19
2023-04-23T16:21:36.910Z,97804.06
2023-04-23T16:24:05.960Z,97806.66
2023-04-23T16:26:34.490Z,97803.22
2023-04-23T16:29:16.452Z,97803.25
2023-04-23T16:31:45.589Z,97804.00
2023-04-23T16:34:13.953Z,97805.84
2023-04-23T16:36:43.960Z,97797.66
2023-04-23T16:39:12.417Z,97791.97
2023-04-23T16:41:40.442Z,97791.75
2023-04-23T16:44:08.498Z,97785.91
2023-04-23T16:46:37.322Z,97784.00
2023-04-23T16:49:05.661Z,97781.94
2023-04-23T16:51:33.743Z,97773.09
2023-04-23T16:54:03.696Z,97767.72
2023-04-23T16:56:32.493Z,97763.22
2023-04-23T16:59:01.796Z,97755.97
2023-04-23T17:01:29.866Z,97761.06
2023-04-23T17:03:58.143Z,97756.78
2023-04-23T17:06:28.879Z,97765.34
2023-04-23T17:08:59.594Z,97754.44
2023-04-23T17:11:30.961Z,97761.91
2023-04-23T17:14:00.220Z,97760.56
2023-04-23T17:16:29.178Z,97761.28
2023-04-23T17:18:57.769Z,97761.03
2023-04-23T17:21:27.437Z,97769.75
2023-04-23T17:23:55.853Z,97779.72
2023-04-23T17:26:24.346Z,97784.53
2023-04-23T17:28:54.825Z,97807.47
2023-04-23T17:31:24.488Z,97836.69
2023-04-23T17:33:53.817Z,97850.41
2023-04-23T17:36:21.909Z,97854.09
2023-04-23T17:38:50.094Z,97860.84
2023-04-23T17:41:19.290Z,97861.06
2023-04-23T17:43:49.494Z,97865.19
2023-04-23T17:46:19.184Z,97864.72
2023-04-23T17:48:48.419Z,97859.09
2023-04-23T17:51:16.678Z,97870.81
2023-04-23T17:53:48.447Z,97858.63
2023-04-23T17:56:16.998Z,97846.31
2023-04-23T17:58:45.354Z,97854.22
2023-04-23T18:01:13.687Z,97836.56
2023-04-23T18:03:43.454Z,97847.34
2023-04-23T18:06:11.634Z,97836.22
2023-04-23T18:08:42.530Z,97834.69
2023-04-23T18:11:10.958Z,97833.22
2023-04-23T18:13:39.222Z,97831.47
2023-04-23T18:16:07.636Z,97837.28
2023-04-23T18:18:35.770Z,97836.47
2023-04-23T18:21:05.968Z,97831.69
2023-04-23T18:23:36.104Z,97831.81
2023-04-23T18:26:04.686Z,97839.16
2023-04-23T18:28:33.160Z,97828.50
2023-04-23T18:31:02.717Z,97827.66
2023-04-23T18:33:33.882Z,97828.59
2023-04-23T18:36:06.758Z,97823.13
2023-04-23T18:38:40.625Z,97828.41
2023-04-23T18:41:08.934Z,97836.78
2023-04-23T18:43:37.280Z,97833.16
2023-04-23T18:46:05.633Z,97826.44
2023-04-23T18:48:42.982Z,97842.97
2023-04-23T18:51:27.018Z,97847.91
2023-04-23T18:53:55.189Z,97846.41
2023-04-23T18:56:25.160Z,97838.72
2023-04-23T18:58:53.695Z,97835.66
2023-04-23T19:01:21.796Z,97840.25
2023-04-23T19:03:50.936Z,97837.25
2023-04-23T19:06:19.960Z,97833.84
2023-04-23T19:08:49.611Z,97830.06
2023-04-23T19:11:17.783Z,97834.53
2023-04-23T19:13:47.221Z,97832.16
2023-04-23T19:16:16.842Z,97832.41
2023-04-23T19:18:45.090Z,97849.59
2023-04-23T19:21:13.549Z,97847.19
2023-04-23T19:23:41.969Z,97844.09
2023-04-23T19:26:12.113Z,97835.81
2023-04-23T19:28:40.202Z,97835.44
2023-04-23T19:31:08.730Z,97848.13
2023-04-23T19:33:37.252Z,97839.78
2023-04-23T19:36:06.038Z,97850.00
2023-04-23T19:38:34.250Z,97850.56
2023-04-23T19:41:02.821Z,97848.50
2023-04-23T19:43:32.646Z,97849.13
2023-04-23T19:46:00.876Z,97842.16
2023-04-23T19:48:29.299Z,97854.09
2023-04-23T19:50:57.634Z,97850.59
2023-04-23T19:53:26.934Z,97852.34
2023-04-23T19:55:55.243Z,97840.94
2023-04-23T19:58:23.550Z,97864.63
2023-04-23T20:00:53.330Z,97854.44
2023-04-23T20:03:22.202Z,97848.97
2023-04-23T20:05:52.794Z,97854.88
2023-04-23T20:08:29.566Z,97855.97
2023-04-23T20:10:58.500Z,97858.50
2023-04-23T20:13:26.971Z,97845.91
2023-04-23T20:15:56.829Z,97848.56
2023-04-23T20:18:26.041Z,97851.84
2023-04-23T20:20:57.212Z,97851.22
2023-04-23T20:23:25.479Z,97854.63
2023-04-23T20:25:53.769Z,97849.56
2023-04-23T20:28:22.043Z,97844.84
2023-04-23T20:30:50.466Z,97851.28
2023-04-23T20:33:21.180Z,97848.66
2023-04-23T20:35:49.655Z,97846.00
2023-04-23T20:38:19.556Z,97858.06
2023-04-23T20:40:50.565Z,97843.06
2023-04-23T20:43:18.924Z,97835.94
2023-04-23T20:45:47.696Z,97852.88
2023-04-23T20:48:15.886Z,97842.94
2023-04-23T20:50:45.587Z,97837.63
2023-04-23T20:53:14.559Z,97839.53
2023-04-23T20:55:42.985Z,97833.69
2023-04-23T20:58:11.492Z,97845.72
2023-04-23T21:00:39.908Z,97851.03
2023-04-23T21:03:08.445Z,97838.16
2023-04-23T21:05:38.743Z,97832.03
2023-04-23T21:08:08.569Z,97832.34
2023-04-23T21:10:38.977Z,97825.75
2023-04-23T21:13:07.716Z,97815.06
2023-04-23T21:15:37.138Z,97820.63
2023-04-23T21:18:05.966Z,97819.78
2023-04-23T21:20:34.478Z,97814.63
2023-04-23T21:23:02.678Z,97824.41
2023-04-23T21:25:35.713Z,97812.06
2023-04-23T21:28:04.542Z,97815.88
2023-04-23T21:30:40.980Z,97821.16
2023-04-23T21:33:09.225Z,97815.66
2023-04-23T21:35:37.411Z,97814.34
2023-04-23T21:38:05.567Z,97815.13
2023-04-23T21:40:35.523Z,97820.00
2023-04-23T21:43:04.591Z,97819.63
2023-04-23T21:45:32.975Z,97822.78
2023-04-23T21:48:01.954Z,97823.91
2023-04-23T21:50:31.733Z,97839.19
2023-04-23T21:53:00.706Z,97829.81
2023-04-23T21:55:30.969Z,97828.16
2023-04-23T22:00:32.478Z,97835.25
2023-04-23T22:03:01.713Z,97829.00
2023-04-23T22:05:35.475Z,97830.59
2023-04-23T22:08:03.687Z,97831.97
2023-04-23T22:10:31.808Z,97827.78
2023-04-23T22:13:01.467Z,97827.09
2023-04-23T22:15:30.062Z,97826.25
2023-04-23T22:18:00.966Z,97830.59
2023-04-23T22:20:30.762Z,97831.59
2023-04-23T22:22:59.043Z,97833.00
2023-04-23T22:25:27.409Z,97838.88
2023-04-23T22:27:55.632Z,97842.38
2023-04-23T22:30:25.415Z,97846.00
2023-04-23T22:32:53.619Z,97846.03
2023-04-23T22:35:21.850Z,97846.84
2023-04-23T22:37:50.396Z,97852.03
2023-04-23T22:40:18.618Z,97854.69
2023-04-23T22:42:46.957Z,97845.47
2023-04-23T22:45:15.328Z,97854.97
2023-04-23T22:47:44.933Z,97849.94
2023-04-23T22:50:13.109Z,97844.06
2023-04-23T22:52:41.554Z,97848.53
2023-04-23T22:55:10.226Z,97852.88
2023-04-23T22:57:38.346Z,97848.66
2023-04-23T23:00:10.063Z,97843.31
2023-04-23T23:02:38.586Z,97841.50
2023-04-23T23:05:09.744Z,97830.50
2023-04-23T23:07:38.644Z,97833.41
2023-04-23T23:10:08.961Z,97829.81
2023-04-23T23:12:39.320Z,97827.56
2023-04-23T23:15:08.602Z,97827.69
2023-04-23T23:17:36.968Z,97824.88
2023-04-23T23:20:09.012Z,97823.78
2023-04-23T23:22:39.020Z,97822.94
2023-04-23T23:25:08.213Z,97834.63
2023-04-23T23:27:36.571Z,97830.03
2023-04-23T23:30:06.252Z,97826.31
2023-04-23T23:32:37.893Z,97822.22
2023-04-23T23:35:06.779Z,97827.97
2023-04-23T23:37:35.504Z,97824.47
2023-04-23T23:40:07.415Z,97813.03
2023-04-23T23:42:35.627Z,97815.13
2023-04-23T23:45:04.285Z,97800.63
2023-04-23T23:47:32.434Z,97811.06
2023-04-23T23:50:00.992Z,97806.03
2023-04-23T23:52:29.258Z,97806.19
2023-04-23T23:54:57.639Z,97800.72
2023-04-23T23:57:27.188Z,97801.53
2023-04-23T23:59:56.085Z,97805.47
